sensor_id;sensor_type;location;lat;lon;timestamp;temperature;humidity
54126;DHT22;40360;52.992;6.796;2024-01-15T00:02:14;1.80;99.90
54126;DHT22;40360;52.992;6.796;2024-01-15T00:04:41;1.80;99.90
54126;DHT22;40360;52.992;6.796;2024-01-15T00:07:07;1.80;99.90
54126;DHT22;40360;52.992;6.796;2024-01-15T00:09:34;1.80;99.90
54126;DHT22;40360;52.992;6.796;2024-01-15T00:12:01;1.80;99.90
54126;DHT22;40360;52.992;6.796;2024-01-15T00:14:31;1.80;99.90
54126;DHT22;40360;52.992;6.796;2024-01-15T00:16:59;1.90;99.90
54126;DHT22;40360;52.992;6.796;2024-01-15T00:19:25;2.10;99.90
54126;DHT22;40360;52.992;6.796;2024-01-15T00:21:50;1.90;99.90
54126;DHT22;40360;52.992;6.796;2024-01-15T00:24:16;1.90;99.90
54126;DHT22;40360;52.992;6.796;2024-01-15T00:26:42;2.00;99.90
54126;DHT22;40360;52.992;6.796;2024-01-15T00:29:08;2.00;99.90
54126;DHT22;40360;52.992;6.796;2024-01-15T00:31:34;2.00;99.90
54126;DHT22;40360;52.992;6.796;2024-01-15T00:34:00;2.00;99.90
54126;DHT22;40360;52.992;6.796;2024-01-15T00:36:26;2.00;99.90
54126;DHT22;40360;52.992;6.796;2024-01-15T00:38:53;2.00;99.90
54126;DHT22;40360;52.992;6.796;2024-01-15T00:41:22;2.00;99.90
54126;DHT22;40360;52.992;6.796;2024-01-15T00:43:50;2.00;99.90
54126;DHT22;40360;52.992;6.796;2024-01-15T00:46:20;1.90;99.90
54126;DHT22;40360;52.992;6.796;2024-01-15T00:48:45;1.90;99.90
54126;DHT22;40360;52.992;6.796;2024-01-15T00:51:12;1.90;99.90
54126;DHT22;40360;52.992;6.796;2024-01-15T00:53:38;1.90;99.90
54126;DHT22;40360;52.992;6.796;2024-01-15T00:56:03;1.80;99.90
54126;DHT22;40360;52.992;6.796;2024-01-15T00:58:29;1.80;99.90
54126;DHT22;40360;52.992;6.796;2024-01-15T01:00:56;1.70;99.90
54126;DHT22;40360;52.992;6.796;2024-01-15T01:03:24;1.60;99.90
54126;DHT22;40360;52.992;6.796;2024-01-15T01:05:50;1.60;99.90
54126;DHT22;40360;52.992;6.796;2024-01-15T01:08:16;1.60;99.90
54126;DHT22;40360;52.992;6.796;2024-01-15T01:10:41;1.60;99.90
54126;DHT22;40360;52.992;6.796;2024-01-15T01:13:10;1.50;99.90
54126;DHT22;40360;52.992;6.796;2024-01-15T01:15:35;1.60;99.90
54126;DHT22;40360;52.992;6.796;2024-01-15T01:18:01;1.50;99.90
54126;DHT22;40360;52.992;6.796;2024-01-15T01:20:27;1.50;99.90
54126;DHT22;40360;52.992;6.796;2024-01-15T01:22:53;1.40;99.90
54126;DHT22;40360;52.992;6.796;2024-01-15T01:25:18;1.40;99.90
54126;DHT22;40360;52.992;6.796;2024-01-15T01:27:44;1.40;99.90
54126;DHT22;40360;52.992;6.796;2024-01-15T01:30:10;1.40;99.90
54126;DHT22;40360;52.992;6.796;2024-01-15T01:32:37;1.40;99.90
54126;DHT22;40360;52.992;6.796;2024-01-15T01:35:04;1.40;99.90
54126;DHT22;40360;52.992;6.796;2024-01-15T01:37:34;1.40;99.90
54126;DHT22;40360;52.992;6.796;2024-01-15T01:40:01;1.40;99.90
54126;DHT22;40360;52.992;6.796;2024-01-15T01:42:27;1.40;99.90
54126;DHT22;40360;52.992;6.796;2024-01-15T01:44:53;1.40;99.90
54126;DHT22;40360;52.992;6.796;2024-01-15T01:47:19;1.40;99.90
54126;DHT22;40360;52.992;6.796;2024-01-15T01:49:46;1.40;99.90
54126;DHT22;40360;52.992;6.796;2024-01-15T01:52:12;1.40;99.90
54126;DHT22;40360;52.992;6.796;2024-01-15T01:54:38;1.50;99.90
54126;DHT22;40360;52.992;6.796;2024-01-15T01:57:06;1.50;99.90
54126;DHT22;40360;52.992;6.796;2024-01-15T01:59:34;1.60;99.90
54126;DHT22;40360;52.992;6.796;2024-01-15T02:02:04;1.60;99.90
54126;DHT22;40360;52.992;6.796;2024-01-15T02:04:31;1.70;99.90
54126;DHT22;40360;52.992;6.796;2024-01-15T02:07:00;1.70;99.90
54126;DHT22;40360;52.992;6.796;2024-01-15T02:09:26;1.70;99.90
54126;DHT22;40360;52.992;6.796;2024-01-15T02:11:52;1.70;99.90
54126;DHT22;40360;52.992;6.796;2024-01-15T02:14:18;1.80;99.90
54126;DHT22;40360;52.992;6.796;2024-01-15T02:16:44;1.80;99.90
54126;DHT22;40360;52.992;6.796;2024-01-15T02:19:16;1.80;99.90
54126;DHT22;40360;52.992;6.796;2024-01-15T02:21:43;1.70;99.90
54126;DHT22;40360;52.992;6.796;2024-01-15T02:24:09;1.80;99.90
54126;DHT22;40360;52.992;6.796;2024-01-15T02:26:35;1.70;99.90
54126;DHT22;40360;52.992;6.796;2024-01-15T02:29:02;1.70;99.90
54126;DHT22;40360;52.992;6.796;2024-01-15T02:31:29;1.70;99.90
54126;DHT22;40360;52.992;6.796;2024-01-15T02:33:54;1.80;99.90
54126;DHT22;40360;52.992;6.796;2024-01-15T02:36:20;1.80;99.90
54126;DHT22;40360;52.992;6.796;2024-01-15T02:38:46;1.80;99.90
54126;DHT22;40360;52.992;6.796;2024-01-15T02:41:12;1.80;99.90
54126;DHT22;40360;52.992;6.796;2024-01-15T02:43:40;1.80;99.90
54126;DHT22;40360;52.992;6.796;2024-01-15T02:46:06;1.80;99.90
54126;DHT22;40360;52.992;6.796;2024-01-15T02:48:32;1.80;99.90
54126;DHT22;40360;52.992;6.796;2024-01-15T02:51:00;1.80;99.90
54126;DHT22;40360;52.992;6.796;2024-01-15T02:53:26;1.80;99.90
54126;DHT22;40360;52.992;6.796;2024-01-15T02:55:52;1.80;99.90
54126;DHT22;40360;52.992;6.796;2024-01-15T02:58:17;1.90;99.90
54126;DHT22;40360;52.992;6.796;2024-01-15T03:00:43;1.80;99.90
54126;DHT22;40360;52.992;6.796;2024-01-15T03:03:09;1.80;99.90
54126;DHT22;40360;52.992;6.796;2024-01-15T03:05:35;1.90;99.90
54126;DHT22;40360;52.992;6.796;2024-01-15T03:08:00;1.90;99.90
54126;DHT22;40360;52.992;6.796;2024-01-15T03:10:26;1.90;99.90
54126;DHT22;40360;52.992;6.796;2024-01-15T03:12:55;2.00;99.90
54126;DHT22;40360;52.992;6.796;2024-01-15T03:15:21;1.90;99.90
54126;DHT22;40360;52.992;6.796;2024-01-15T03:17:47;1.90;99.90
54126;DHT22;40360;52.992;6.796;2024-01-15T03:20:12;1.90;99.90
54126;DHT22;40360;52.992;6.796;2024-01-15T03:22:38;2.10;99.90
54126;DHT22;40360;52.992;6.796;2024-01-15T03:25:05;1.90;99.90
54126;DHT22;40360;52.992;6.796;2024-01-15T03:27:32;1.90;99.90
54126;DHT22;40360;52.992;6.796;2024-01-15T03:29:57;1.90;99.90
54126;DHT22;40360;52.992;6.796;2024-01-15T03:32:24;1.90;99.90
54126;DHT22;40360;52.992;6.796;2024-01-15T03:34:51;2.00;99.90
54126;DHT22;40360;52.992;6.796;2024-01-15T03:37:18;2.00;99.90
54126;DHT22;40360;52.992;6.796;2024-01-15T03:39:43;2.00;99.90
54126;DHT22;40360;52.992;6.796;2024-01-15T03:42:09;2.00;99.90
54126;DHT22;40360;52.992;6.796;2024-01-15T03:44:35;2.00;99.90
54126;DHT22;40360;52.992;6.796;2024-01-15T03:47:00;2.10;99.90
54126;DHT22;40360;52.992;6.796;2024-01-15T03:49:26;2.10;99.90
54126;DHT22;40360;52.992;6.796;2024-01-15T03:51:53;1.90;99.90
54126;DHT22;40360;52.992;6.796;2024-01-15T03:54:21;1.90;99.90
54126;DHT22;40360;52.992;6.796;2024-01-15T03:56:56;1.90;99.90
54126;DHT22;40360;52.992;6.796;2024-01-15T03:59:23;1.90;99.90
54126;DHT22;40360;52.992;6.796;2024-01-15T04:01:50;1.90;99.90
54126;DHT22;40360;52.992;6.796;2024-01-15T04:04:18;1.90;99.90
54126;DHT22;40360;52.992;6.796;2024-01-15T04:06:44;1.90;99.90
54126;DHT22;40360;52.992;6.796;2024-01-15T04:09:11;1.90;99.90
54126;DHT22;40360;52.992;6.796;2024-01-15T04:11:37;1.90;99.90
54126;DHT22;40360;52.992;6.796;2024-01-15T04:14:03;1.80;99.90
54126;DHT22;40360;52.992;6.796;2024-01-15T04:16:31;1.90;99.90
54126;DHT22;40360;52.992;6.796;2024-01-15T04:18:57;1.90;99.90
54126;DHT22;40360;52.992;6.796;2024-01-15T04:21:24;1.90;99.90
54126;DHT22;40360;52.992;6.796;2024-01-15T04:23:51;1.90;99.90
54126;DHT22;40360;52.992;6.796;2024-01-15T04:26:19;1.90;99.90
54126;DHT22;40360;52.992;6.796;2024-01-15T04:28:45;2.00;99.90
54126;DHT22;40360;52.992;6.796;2024-01-15T04:31:23;2.00;99.90
54126;DHT22;40360;52.992;6.796;2024-01-15T04:33:49;2.10;99.90
54126;DHT22;40360;52.992;6.796;2024-01-15T04:36:15;2.10;99.90
54126;DHT22;40360;52.992;6.796;2024-01-15T04:38:41;2.20;99.90
54126;DHT22;40360;52.992;6.796;2024-01-15T04:41:09;2.20;99.90
54126;DHT22;40360;52.992;6.796;2024-01-15T04:43:35;2.40;99.90
54126;DHT22;40360;52.992;6.796;2024-01-15T04:46:01;2.20;99.90
54126;DHT22;40360;52.992;6.796;2024-01-15T04:48:29;2.10;99.90
54126;DHT22;40360;52.992;6.796;2024-01-15T04:50:55;2.10;99.90
54126;DHT22;40360;52.992;6.796;2024-01-15T04:53:21;2.00;99.90
54126;DHT22;40360;52.992;6.796;2024-01-15T04:55:47;1.90;99.90
54126;DHT22;40360;52.992;6.796;2024-01-15T04:58:13;1.80;99.90
54126;DHT22;40360;52.992;6.796;2024-01-15T05:00:39;1.70;99.90
54126;DHT22;40360;52.992;6.796;2024-01-15T05:03:05;1.70;99.90
54126;DHT22;40360;52.992;6.796;2024-01-15T05:05:31;1.60;99.90
54126;DHT22;40360;52.992;6.796;2024-01-15T05:07:56;1.60;99.90
54126;DHT22;40360;52.992;6.796;2024-01-15T05:10:22;1.50;99.90
54126;DHT22;40360;52.992;6.796;2024-01-15T05:12:48;1.60;99.90
54126;DHT22;40360;52.992;6.796;2024-01-15T05:15:13;1.50;99.90
54126;DHT22;40360;52.992;6.796;2024-01-15T05:17:40;1.40;99.90
54126;DHT22;40360;52.992;6.796;2024-01-15T05:20:07;1.40;99.90
54126;DHT22;40360;52.992;6.796;2024-01-15T05:22:33;1.40;99.90
54126;DHT22;40360;52.992;6.796;2024-01-15T05:25:03;1.40;99.90
54126;DHT22;40360;52.992;6.796;2024-01-15T05:27:29;1.30;99.90
54126;DHT22;40360;52.992;6.796;2024-01-15T05:29:57;1.30;99.90
54126;DHT22;40360;52.992;6.796;2024-01-15T05:32:23;1.30;99.90
54126;DHT22;40360;52.992;6.796;2024-01-15T05:34:49;1.30;99.90
54126;DHT22;40360;52.992;6.796;2024-01-15T05:37:14;1.30;99.90
54126;DHT22;40360;52.992;6.796;2024-01-15T05:39:40;1.20;99.90
54126;DHT22;40360;52.992;6.796;2024-01-15T05:42:06;1.30;99.90
54126;DHT22;40360;52.992;6.796;2024-01-15T05:44:32;1.30;99.90
54126;DHT22;40360;52.992;6.796;2024-01-15T05:46:57;1.30;99.90
54126;DHT22;40360;52.992;6.796;2024-01-15T05:49:23;1.40;99.90
54126;DHT22;40360;52.992;6.796;2024-01-15T05:51:50;1.40;99.90
54126;DHT22;40360;52.992;6.796;2024-01-15T05:54:18;1.40;99.90
54126;DHT22;40360;52.992;6.796;2024-01-15T05:56:45;1.50;99.90
54126;DHT22;40360;52.992;6.796;2024-01-15T05:59:11;1.50;99.90
54126;DHT22;40360;52.992;6.796;2024-01-15T06:01:36;1.50;99.90
54126;DHT22;40360;52.992;6.796;2024-01-15T06:04:02;1.50;99.90
54126;DHT22;40360;52.992;6.796;2024-01-15T06:06:28;1.50;99.90
54126;DHT22;40360;52.992;6.796;2024-01-15T06:08:54;1.50;99.90
54126;DHT22;40360;52.992;6.796;2024-01-15T06:11:20;1.50;99.90
54126;DHT22;40360;52.992;6.796;2024-01-15T06:13:45;1.50;99.90
54126;DHT22;40360;52.992;6.796;2024-01-15T06:16:15;1.40;99.90
54126;DHT22;40360;52.992;6.796;2024-01-15T06:18:42;1.40;99.90
54126;DHT22;40360;52.992;6.796;2024-01-15T06:21:08;1.40;99.90
54126;DHT22;40360;52.992;6.796;2024-01-15T06:23:37;1.30;99.90
54126;DHT22;40360;52.992;6.796;2024-01-15T06:26:03;1.30;99.90
54126;DHT22;40360;52.992;6.796;2024-01-15T06:28:29;1.30;99.90
54126;DHT22;40360;52.992;6.796;2024-01-15T06:30:55;1.30;99.90
54126;DHT22;40360;52.992;6.796;2024-01-15T06:33:20;1.30;99.90
54126;DHT22;40360;52.992;6.796;2024-01-15T06:35:46;1.30;99.90
54126;DHT22;40360;52.992;6.796;2024-01-15T06:38:12;1.40;99.90
54126;DHT22;40360;52.992;6.796;2024-01-15T06:40:38;1.40;99.90
54126;DHT22;40360;52.992;6.796;2024-01-15T06:43:07;1.40;99.90
54126;DHT22;40360;52.992;6.796;2024-01-15T06:45:33;1.30;99.90
54126;DHT22;40360;52.992;6.796;2024-01-15T06:47:58;1.30;99.90
54126;DHT22;40360;52.992;6.796;2024-01-15T06:50:24;1.30;99.90
54126;DHT22;40360;52.992;6.796;2024-01-15T06:52:50;1.30;99.90
54126;DHT22;40360;52.992;6.796;2024-01-15T06:55:16;1.30;99.90
54126;DHT22;40360;52.992;6.796;2024-01-15T06:57:42;1.30;99.90
54126;DHT22;40360;52.992;6.796;2024-01-15T07:00:09;1.30;99.90
54126;DHT22;40360;52.992;6.796;2024-01-15T07:02:35;1.30;99.90
54126;DHT22;40360;52.992;6.796;2024-01-15T07:22:45;1.30;99.90
54126;DHT22;40360;52.992;6.796;2024-01-15T07:25:11;1.30;99.90
54126;DHT22;40360;52.992;6.796;2024-01-15T07:27:38;1.20;99.90
54126;DHT22;40360;52.992;6.796;2024-01-15T07:30:04;1.20;99.90
54126;DHT22;40360;52.992;6.796;2024-01-15T07:32:31;1.20;99.90
54126;DHT22;40360;52.992;6.796;2024-01-15T07:34:57;1.30;99.90
54126;DHT22;40360;52.992;6.796;2024-01-15T07:37:25;1.20;99.90
54126;DHT22;40360;52.992;6.796;2024-01-15T07:39:50;1.20;99.90
54126;DHT22;40360;52.992;6.796;2024-01-15T07:42:16;1.20;99.90
54126;DHT22;40360;52.992;6.796;2024-01-15T07:44:42;1.20;99.90
54126;DHT22;40360;52.992;6.796;2024-01-15T07:47:08;1.20;99.90
54126;DHT22;40360;52.992;6.796;2024-01-15T07:49:35;1.10;99.90
54126;DHT22;40360;52.992;6.796;2024-01-15T07:52:00;1.10;99.90
54126;DHT22;40360;52.992;6.796;2024-01-15T07:54:27;1.10;99.90
54126;DHT22;40360;52.992;6.796;2024-01-15T07:57:02;1.20;99.90
54126;DHT22;40360;52.992;6.796;2024-01-15T07:59:31;1.10;99.90
54126;DHT22;40360;52.992;6.796;2024-01-15T08:01:59;1.10;99.90
54126;DHT22;40360;52.992;6.796;2024-01-15T08:04:25;1.10;99.90
54126;DHT22;40360;52.992;6.796;2024-01-15T08:06:51;1.20;99.90
54126;DHT22;40360;52.992;6.796;2024-01-15T08:09:17;1.20;99.90
54126;DHT22;40360;52.992;6.796;2024-01-15T08:11:43;1.30;99.90
54126;DHT22;40360;52.992;6.796;2024-01-15T08:14:09;1.30;99.90
54126;DHT22;40360;52.992;6.796;2024-01-15T08:16:35;1.40;99.90
54126;DHT22;40360;52.992;6.796;2024-01-15T08:19:01;2.00;99.90
54126;DHT22;40360;52.992;6.796;2024-01-15T08:21:27;1.40;99.90
54126;DHT22;40360;52.992;6.796;2024-01-15T08:23:57;1.40;99.90
54126;DHT22;40360;52.992;6.796;2024-01-15T08:26:24;1.40;99.90
54126;DHT22;40360;52.992;6.796;2024-01-15T08:28:49;1.50;99.90
54126;DHT22;40360;52.992;6.796;2024-01-15T08:31:15;1.50;99.90
54126;DHT22;40360;52.992;6.796;2024-01-15T08:33:41;1.50;99.90
54126;DHT22;40360;52.992;6.796;2024-01-15T08:36:07;1.50;99.90
54126;DHT22;40360;52.992;6.796;2024-01-15T08:38:33;1.50;99.90
54126;DHT22;40360;52.992;6.796;2024-01-15T08:40:59;1.50;99.90
54126;DHT22;40360;52.992;6.796;2024-01-15T08:43:26;1.50;99.90
54126;DHT22;40360;52.992;6.796;2024-01-15T08:45:53;1.50;99.90
54126;DHT22;40360;52.992;6.796;2024-01-15T08:48:19;1.40;99.90
54126;DHT22;40360;52.992;6.796;2024-01-15T08:50:45;1.60;99.90
54126;DHT22;40360;52.992;6.796;2024-01-15T08:53:14;1.40;99.90
54126;DHT22;40360;52.992;6.796;2024-01-15T08:55:40;1.40;99.90
54126;DHT22;40360;52.992;6.796;2024-01-15T08:58:08;1.30;99.90
54126;DHT22;40360;52.992;6.796;2024-01-15T09:00:34;1.40;99.90
54126;DHT22;40360;52.992;6.796;2024-01-15T09:03:00;1.40;99.90
54126;DHT22;40360;52.992;6.796;2024-01-15T09:05:26;1.40;99.90
54126;DHT22;40360;52.992;6.796;2024-01-15T09:07:51;1.40;99.90
54126;DHT22;40360;52.992;6.796;2024-01-15T09:10:18;1.50;99.90
54126;DHT22;40360;52.992;6.796;2024-01-15T09:12:44;1.50;99.90
54126;DHT22;40360;52.992;6.796;2024-01-15T09:15:10;1.60;99.90
54126;DHT22;40360;52.992;6.796;2024-01-15T09:17:36;1.60;99.90
54126;DHT22;40360;52.992;6.796;2024-01-15T09:20:01;1.70;99.90
54126;DHT22;40360;52.992;6.796;2024-01-15T09:22:29;1.70;99.90
54126;DHT22;40360;52.992;6.796;2024-01-15T09:24:55;1.80;99.90
54126;DHT22;40360;52.992;6.796;2024-01-15T09:27:22;1.90;99.90
54126;DHT22;40360;52.992;6.796;2024-01-15T09:29:48;1.90;99.90
54126;DHT22;40360;52.992;6.796;2024-01-15T09:32:14;1.90;99.90
54126;DHT22;40360;52.992;6.796;2024-01-15T09:34:41;1.90;99.90
54126;DHT22;40360;52.992;6.796;2024-01-15T09:37:07;1.90;99.90
54126;DHT22;40360;52.992;6.796;2024-01-15T09:39:33;1.90;99.90
54126;DHT22;40360;52.992;6.796;2024-01-15T09:41:59;1.90;99.90
54126;DHT22;40360;52.992;6.796;2024-01-15T09:44:25;1.80;99.90
54126;DHT22;40360;52.992;6.796;2024-01-15T09:46:52;1.90;99.90
54126;DHT22;40360;52.992;6.796;2024-01-15T09:49:18;1.90;99.90
54126;DHT22;40360;52.992;6.796;2024-01-15T09:51:44;1.80;99.90
54126;DHT22;40360;52.992;6.796;2024-01-15T09:54:11;1.80;99.90
54126;DHT22;40360;52.992;6.796;2024-01-15T09:56:39;1.80;99.90
54126;DHT22;40360;52.992;6.796;2024-01-15T09:59:06;1.90;99.90
54126;DHT22;40360;52.992;6.796;2024-01-15T10:01:32;1.90;99.90
54126;DHT22;40360;52.992;6.796;2024-01-15T10:03:59;2.00;99.90
54126;DHT22;40360;52.992;6.796;2024-01-15T10:06:27;2.10;99.90
54126;DHT22;40360;52.992;6.796;2024-01-15T10:08:56;2.00;99.90
54126;DHT22;40360;52.992;6.796;2024-01-15T10:11:24;1.90;99.90
54126;DHT22;40360;52.992;6.796;2024-01-15T10:13:50;1.80;99.90
54126;DHT22;40360;52.992;6.796;2024-01-15T10:16:21;1.70;99.90
54126;DHT22;40360;52.992;6.796;2024-01-15T10:18:48;1.70;99.90
54126;DHT22;40360;52.992;6.796;2024-01-15T10:21:14;1.60;99.90
54126;DHT22;40360;52.992;6.796;2024-01-15T10:23:39;1.60;99.90
54126;DHT22;40360;52.992;6.796;2024-01-15T10:26:05;1.60;99.90
54126;DHT22;40360;52.992;6.796;2024-01-15T10:28:31;1.60;99.90
54126;DHT22;40360;52.992;6.796;2024-01-15T10:30:58;1.60;99.90
54126;DHT22;40360;52.992;6.796;2024-01-15T10:33:25;1.60;99.90
54126;DHT22;40360;52.992;6.796;2024-01-15T10:35:57;1.70;99.90
54126;DHT22;40360;52.992;6.796;2024-01-15T10:38:23;1.70;99.90
54126;DHT22;40360;52.992;6.796;2024-01-15T10:40:54;1.80;99.90
54126;DHT22;40360;52.992;6.796;2024-01-15T10:43:20;1.90;99.90
54126;DHT22;40360;52.992;6.796;2024-01-15T10:45:46;2.00;99.90
54126;DHT22;40360;52.992;6.796;2024-01-15T10:48:13;2.00;99.90
54126;DHT22;40360;52.992;6.796;2024-01-15T10:50:40;2.00;99.90
54126;DHT22;40360;52.992;6.796;2024-01-15T10:53:06;2.10;99.90
54126;DHT22;40360;52.992;6.796;2024-01-15T10:55:33;2.10;99.90
54126;DHT22;40360;52.992;6.796;2024-01-15T10:58:01;2.20;99.90
54126;DHT22;40360;52.992;6.796;2024-01-15T11:00:30;2.20;99.90
54126;DHT22;40360;52.992;6.796;2024-01-15T11:02:56;2.20;99.90
54126;DHT22;40360;52.992;6.796;2024-01-15T11:05:22;2.10;99.90
54126;DHT22;40360;52.992;6.796;2024-01-15T11:07:49;2.10;99.90
54126;DHT22;40360;52.992;6.796;2024-01-15T11:10:43;2.10;99.90
54126;DHT22;40360;52.992;6.796;2024-01-15T11:16:09;2.30;99.90
54126;DHT22;40360;52.992;6.796;2024-01-15T11:18:43;2.30;99.90
54126;DHT22;40360;52.992;6.796;2024-01-15T11:26:38;2.20;99.90
54126;DHT22;40360;52.992;6.796;2024-01-15T11:29:28;2.20;99.90
54126;DHT22;40360;52.992;6.796;2024-01-15T11:32:07;2.20;99.90
54126;DHT22;40360;52.992;6.796;2024-01-15T11:37:18;2.20;99.90
54126;DHT22;40360;52.992;6.796;2024-01-15T11:39:45;2.20;99.90
54126;DHT22;40360;52.992;6.796;2024-01-15T11:42:13;2.10;99.90
54126;DHT22;40360;52.992;6.796;2024-01-15T11:44:40;2.10;99.90
54126;DHT22;40360;52.992;6.796;2024-01-15T11:47:08;2.00;99.90
54126;DHT22;40360;52.992;6.796;2024-01-15T11:50:00;2.00;99.90
54126;DHT22;40360;52.992;6.796;2024-01-15T11:52:35;2.00;99.90
54126;DHT22;40360;52.992;6.796;2024-01-15T11:57:47;2.00;99.90
54126;DHT22;40360;52.992;6.796;2024-01-15T12:00:15;2.00;99.90
54126;DHT22;40360;52.992;6.796;2024-01-15T12:02:43;2.00;99.90
54126;DHT22;40360;52.992;6.796;2024-01-15T12:05:10;2.00;99.90
54126;DHT22;40360;52.992;6.796;2024-01-15T12:07:42;2.10;99.90
54126;DHT22;40360;52.992;6.796;2024-01-15T12:10:09;2.10;99.90
54126;DHT22;40360;52.992;6.796;2024-01-15T12:15:24;2.10;99.90
54126;DHT22;40360;52.992;6.796;2024-01-15T12:17:50;2.10;99.90
54126;DHT22;40360;52.992;6.796;2024-01-15T12:20:17;2.00;99.90
54126;DHT22;40360;52.992;6.796;2024-01-15T12:22:44;2.00;99.90
54126;DHT22;40360;52.992;6.796;2024-01-15T12:25:10;1.90;99.90
54126;DHT22;40360;52.992;6.796;2024-01-15T12:27:36;1.70;99.90
54126;DHT22;40360;52.992;6.796;2024-01-15T12:30:03;1.70;99.90
54126;DHT22;40360;52.992;6.796;2024-01-15T12:32:29;1.60;99.90
54126;DHT22;40360;52.992;6.796;2024-01-15T12:34:55;1.60;99.90
54126;DHT22;40360;52.992;6.796;2024-01-15T12:37:21;1.60;99.90
54126;DHT22;40360;52.992;6.796;2024-01-15T12:39:47;1.60;99.90
54126;DHT22;40360;52.992;6.796;2024-01-15T12:42:16;1.60;99.90
54126;DHT22;40360;52.992;6.796;2024-01-15T12:44:43;1.70;99.90
54126;DHT22;40360;52.992;6.796;2024-01-15T12:47:10;1.70;99.90
54126;DHT22;40360;52.992;6.796;2024-01-15T12:49:37;1.70;99.90
54126;DHT22;40360;52.992;6.796;2024-01-15T12:52:03;1.70;99.90
54126;DHT22;40360;52.992;6.796;2024-01-15T12:54:28;1.70;99.90
54126;DHT22;40360;52.992;6.796;2024-01-15T12:56:54;1.70;99.90
54126;DHT22;40360;52.992;6.796;2024-01-15T12:59:20;1.70;99.90
54126;DHT22;40360;52.992;6.796;2024-01-15T13:01:46;1.70;99.90
54126;DHT22;40360;52.992;6.796;2024-01-15T13:04:24;1.80;99.90
54126;DHT22;40360;52.992;6.796;2024-01-15T13:06:50;1.90;99.90
54126;DHT22;40360;52.992;6.796;2024-01-15T13:09:17;1.90;99.90
54126;DHT22;40360;52.992;6.796;2024-01-15T13:11:44;1.90;99.90
54126;DHT22;40360;52.992;6.796;2024-01-15T13:14:10;1.90;99.90
54126;DHT22;40360;52.992;6.796;2024-01-15T13:16:36;1.90;99.90
54126;DHT22;40360;52.992;6.796;2024-01-15T13:19:01;2.00;99.90
54126;DHT22;40360;52.992;6.796;2024-01-15T13:21:29;2.00;99.90
54126;DHT22;40360;52.992;6.796;2024-01-15T13:23:55;2.00;99.90
54126;DHT22;40360;52.992;6.796;2024-01-15T13:26:21;2.10;99.90
54126;DHT22;40360;52.992;6.796;2024-01-15T13:28:50;2.10;99.90
54126;DHT22;40360;52.992;6.796;2024-01-15T13:31:16;2.10;99.90
54126;DHT22;40360;52.992;6.796;2024-01-15T13:33:41;2.10;99.90
54126;DHT22;40360;52.992;6.796;2024-01-15T13:36:08;2.10;99.90
54126;DHT22;40360;52.992;6.796;2024-01-15T13:38:38;2.10;99.90
54126;DHT22;40360;52.992;6.796;2024-01-15T13:41:05;2.10;99.90
54126;DHT22;40360;52.992;6.796;2024-01-15T13:43:34;2.10;99.90
54126;DHT22;40360;52.992;6.796;2024-01-15T13:46:00;2.10;99.90
54126;DHT22;40360;52.992;6.796;2024-01-15T13:48:30;2.10;99.90
54126;DHT22;40360;52.992;6.796;2024-01-15T13:50:57;2.20;99.90
54126;DHT22;40360;52.992;6.796;2024-01-15T13:53:25;2.20;99.90
54126;DHT22;40360;52.992;6.796;2024-01-15T13:55:51;2.30;99.90
54126;DHT22;40360;52.992;6.796;2024-01-15T13:58:16;2.30;99.90
54126;DHT22;40360;52.992;6.796;2024-01-15T14:00:44;2.30;99.90
54126;DHT22;40360;52.992;6.796;2024-01-15T14:03:10;2.30;99.90
54126;DHT22;40360;52.992;6.796;2024-01-15T14:05:35;2.30;99.90
54126;DHT22;40360;52.992;6.796;2024-01-15T14:08:01;2.30;99.90
54126;DHT22;40360;52.992;6.796;2024-01-15T14:10:28;2.30;99.90
54126;DHT22;40360;52.992;6.796;2024-01-15T14:12:54;2.30;99.90
54126;DHT22;40360;52.992;6.796;2024-01-15T14:15:20;2.30;99.90
54126;DHT22;40360;52.992;6.796;2024-01-15T14:17:47;2.40;99.90
54126;DHT22;40360;52.992;6.796;2024-01-15T14:20:13;2.50;99.90
54126;DHT22;40360;52.992;6.796;2024-01-15T14:22:40;2.50;99.90
54126;DHT22;40360;52.992;6.796;2024-01-15T14:25:07;2.50;99.90
54126;DHT22;40360;52.992;6.796;2024-01-15T14:27:33;2.40;99.90
54126;DHT22;40360;52.992;6.796;2024-01-15T14:29:59;2.30;99.90
54126;DHT22;40360;52.992;6.796;2024-01-15T14:32:25;2.20;99.90
54126;DHT22;40360;52.992;6.796;2024-01-15T14:34:50;2.10;99.90
54126;DHT22;40360;52.992;6.796;2024-01-15T14:37:16;2.10;99.90
54126;DHT22;40360;52.992;6.796;2024-01-15T14:39:42;2.10;99.90
54126;DHT22;40360;52.992;6.796;2024-01-15T14:42:08;2.00;99.90
54126;DHT22;40360;52.992;6.796;2024-01-15T14:44:34;1.90;99.90
54126;DHT22;40360;52.992;6.796;2024-01-15T14:47:00;1.90;99.90
54126;DHT22;40360;52.992;6.796;2024-01-15T14:49:26;1.90;99.90
54126;DHT22;40360;52.992;6.796;2024-01-15T14:51:52;1.90;99.90
54126;DHT22;40360;52.992;6.796;2024-01-15T14:54:18;2.10;99.90
54126;DHT22;40360;52.992;6.796;2024-01-15T14:56:43;2.10;99.90
54126;DHT22;40360;52.992;6.796;2024-01-15T14:59:09;2.10;99.90
54126;DHT22;40360;52.992;6.796;2024-01-15T15:01:35;2.20;99.90
54126;DHT22;40360;52.992;6.796;2024-01-15T15:04:01;2.20;99.90
54126;DHT22;40360;52.992;6.796;2024-01-15T15:06:26;2.20;99.90
54126;DHT22;40360;52.992;6.796;2024-01-15T15:08:53;2.10;99.90
54126;DHT22;40360;52.992;6.796;2024-01-15T15:11:26;2.10;99.90
54126;DHT22;40360;52.992;6.796;2024-01-15T15:13:52;2.10;99.90
54126;DHT22;40360;52.992;6.796;2024-01-15T15:16:17;2.00;99.90
54126;DHT22;40360;52.992;6.796;2024-01-15T15:18:43;2.00;99.90
54126;DHT22;40360;52.992;6.796;2024-01-15T15:21:12;2.00;99.90
54126;DHT22;40360;52.992;6.796;2024-01-15T15:23:38;2.00;99.90
54126;DHT22;40360;52.992;6.796;2024-01-15T15:26:05;2.00;99.90
54126;DHT22;40360;52.992;6.796;2024-01-15T15:28:32;2.00;99.90
54126;DHT22;40360;52.992;6.796;2024-01-15T15:31:01;2.00;99.90
54126;DHT22;40360;52.992;6.796;2024-01-15T15:33:26;1.90;99.90
54126;DHT22;40360;52.992;6.796;2024-01-15T15:35:52;1.80;99.90
54126;DHT22;40360;52.992;6.796;2024-01-15T15:38:18;1.70;99.90
54126;DHT22;40360;52.992;6.796;2024-01-15T15:40:44;1.60;99.90
54126;DHT22;40360;52.992;6.796;2024-01-15T15:43:09;1.50;99.90
54126;DHT22;40360;52.992;6.796;2024-01-15T15:45:35;1.50;99.90
54126;DHT22;40360;52.992;6.796;2024-01-15T15:48:01;1.40;99.90
54126;DHT22;40360;52.992;6.796;2024-01-15T15:50:26;1.40;99.90
54126;DHT22;40360;52.992;6.796;2024-01-15T15:52:52;1.30;99.90
54126;DHT22;40360;52.992;6.796;2024-01-15T15:55:18;1.30;99.90
54126;DHT22;40360;52.992;6.796;2024-01-15T15:57:46;1.20;99.90
54126;DHT22;40360;52.992;6.796;2024-01-15T16:00:12;1.20;99.90
54126;DHT22;40360;52.992;6.796;2024-01-15T16:02:39;1.20;99.90
54126;DHT22;40360;52.992;6.796;2024-01-15T16:05:05;1.10;99.90
54126;DHT22;40360;52.992;6.796;2024-01-15T16:07:35;1.20;99.90
54126;DHT22;40360;52.992;6.796;2024-01-15T16:10:01;1.20;99.90
54126;DHT22;40360;52.992;6.796;2024-01-15T16:12:26;1.20;99.90
54126;DHT22;40360;52.992;6.796;2024-01-15T16:14:52;1.20;99.90
54126;DHT22;40360;52.992;6.796;2024-01-15T16:17:18;1.20;99.90